sensor_id;sensor_type;location;lat;lon;timestamp;temperature;humidity
10390;DHT22;5241;47.830;12.972;2022-12-11T00:00:48;0.40;99.90
10390;DHT22;5241;47.830;12.972;2022-12-11T00:03:15;0.40;99.90
10390;DHT22;5241;47.830;12.972;2022-12-11T00:05:42;0.30;99.90
10390;DHT22;5241;47.830;12.972;2022-12-11T00:08:08;0.40;99.90
10390;DHT22;5241;47.830;12.972;2022-12-11T00:10:34;0.40;99.90
10390;DHT22;5241;47.830;12.972;2022-12-11T00:12:59;0.30;99.90
10390;DHT22;5241;47.830;12.972;2022-12-11T00:15:25;0.30;99.90
10390;DHT22;5241;47.830;12.972;2022-12-11T00:17:51;0.40;99.90
10390;DHT22;5241;47.830;12.972;2022-12-11T00:20:16;0.40;99.90
10390;DHT22;5241;47.830;12.972;2022-12-11T00:22:42;0.30;99.90
10390;DHT22;5241;47.830;12.972;2022-12-11T00:25:08;0.30;99.90
10390;DHT22;5241;47.830;12.972;2022-12-11T00:27:33;0.30;99.90
10390;DHT22;5241;47.830;12.972;2022-12-11T00:29:59;0.30;99.90
10390;DHT22;5241;47.830;12.972;2022-12-11T00:32:26;0.30;99.90
10390;DHT22;5241;47.830;12.972;2022-12-11T00:34:51;0.40;99.90
10390;DHT22;5241;47.830;12.972;2022-12-11T00:37:17;0.30;99.90
10390;DHT22;5241;47.830;12.972;2022-12-11T00:39:42;0.30;99.90
10390;DHT22;5241;47.830;12.972;2022-12-11T00:42:08;0.30;99.90
10390;DHT22;5241;47.830;12.972;2022-12-11T00:44:34;0.30;99.90
10390;DHT22;5241;47.830;12.972;2022-12-11T00:47:00;0.30;99.90
10390;DHT22;5241;47.830;12.972;2022-12-11T00:49:25;0.30;99.90
10390;DHT22;5241;47.830;12.972;2022-12-11T00:51:51;0.40;99.90
10390;DHT22;5241;47.830;12.972;2022-12-11T00:54:17;0.30;99.90
10390;DHT22;5241;47.830;12.972;2022-12-11T00:56:42;0.30;99.90
10390;DHT22;5241;47.830;12.972;2022-12-11T00:59:08;0.30;99.90
10390;DHT22;5241;47.830;12.972;2022-12-11T01:01:33;0.30;99.90
10390;DHT22;5241;47.830;12.972;2022-12-11T01:03:59;0.30;99.90
10390;DHT22;5241;47.830;12.972;2022-12-11T01:06:26;0.30;99.90
10390;DHT22;5241;47.830;12.972;2022-12-11T01:08:52;0.30;99.90
10390;DHT22;5241;47.830;12.972;2022-12-11T01:11:39;0.30;99.90
10390;DHT22;5241;47.830;12.972;2022-12-11T01:14:05;0.30;99.90
10390;DHT22;5241;47.830;12.972;2022-12-11T01:16:31;0.30;99.90
10390;DHT22;5241;47.830;12.972;2022-12-11T01:18:57;0.30;99.90
10390;DHT22;5241;47.830;12.972;2022-12-11T01:21:23;0.30;99.90
10390;DHT22;5241;47.830;12.972;2022-12-11T01:23:50;0.30;99.90
10390;DHT22;5241;47.830;12.972;2022-12-11T01:26:16;0.30;99.90
10390;DHT22;5241;47.830;12.972;2022-12-11T01:28:42;0.30;99.90
10390;DHT22;5241;47.830;12.972;2022-12-11T01:31:09;0.30;99.90
10390;DHT22;5241;47.830;12.972;2022-12-11T01:33:36;0.30;99.90
10390;DHT22;5241;47.830;12.972;2022-12-11T01:36:07;0.30;99.90
10390;DHT22;5241;47.830;12.972;2022-12-11T01:38:33;0.30;99.90
10390;DHT22;5241;47.830;12.972;2022-12-11T01:40:58;0.30;99.90
10390;DHT22;5241;47.830;12.972;2022-12-11T01:43:24;0.30;99.90
10390;DHT22;5241;47.830;12.972;2022-12-11T01:45:49;0.30;99.90
10390;DHT22;5241;47.830;12.972;2022-12-11T01:48:19;0.30;99.90
10390;DHT22;5241;47.830;12.972;2022-12-11T01:50:52;0.30;99.90
10390;DHT22;5241;47.830;12.972;2022-12-11T01:53:22;0.30;99.90
10390;DHT22;5241;47.830;12.972;2022-12-11T01:55:50;0.30;99.90
10390;DHT22;5241;47.830;12.972;2022-12-11T01:58:19;0.30;99.90
10390;DHT22;5241;47.830;12.972;2022-12-11T02:00:45;0.30;99.90
10390;DHT22;5241;47.830;12.972;2022-12-11T02:03:11;0.20;99.90
10390;DHT22;5241;47.830;12.972;2022-12-11T02:05:37;0.20;99.90
10390;DHT22;5241;47.830;12.972;2022-12-11T02:08:03;0.20;99.90
10390;DHT22;5241;47.830;12.972;2022-12-11T02:10:46;0.20;99.90
10390;DHT22;5241;47.830;12.972;2022-12-11T02:13:22;0.20;99.90
10390;DHT22;5241;47.830;12.972;2022-12-11T02:15:58;0.10;99.90
10390;DHT22;5241;47.830;12.972;2022-12-11T02:18:33;0.10;99.90
10390;DHT22;5241;47.830;12.972;2022-12-11T02:21:07;0.10;99.90
10390;DHT22;5241;47.830;12.972;2022-12-11T02:24:22;0.10;99.90
10390;DHT22;5241;47.830;12.972;2022-12-11T02:32:08;0.10;99.90
10390;DHT22;5241;47.830;12.972;2022-12-11T02:34:51;0.10;99.90
10390;DHT22;5241;47.830;12.972;2022-12-11T02:37:21;0.10;99.90
10390;DHT22;5241;47.830;12.972;2022-12-11T02:39:49;0.10;99.90
10390;DHT22;5241;47.830;12.972;2022-12-11T02:42:17;0.10;99.90
10390;DHT22;5241;47.830;12.972;2022-12-11T02:44:45;0.10;99.90
10390;DHT22;5241;47.830;12.972;2022-12-11T02:47:14;0.00;99.90
10390;DHT22;5241;47.830;12.972;2022-12-11T02:49:43;0.10;99.90
10390;DHT22;5241;47.830;12.972;2022-12-11T02:52:11;0.00;99.90
10390;DHT22;5241;47.830;12.972;2022-12-11T02:54:38;0.00;99.90
10390;DHT22;5241;47.830;12.972;2022-12-11T02:59:37;0.00;99.90
10390;DHT22;5241;47.830;12.972;2022-12-11T03:02:04;0.00;99.90
10390;DHT22;5241;47.830;12.972;2022-12-11T03:04:30;0.00;99.90
10390;DHT22;5241;47.830;12.972;2022-12-11T03:07:06;0.00;99.90
10390;DHT22;5241;47.830;12.972;2022-12-11T03:09:39;0.00;99.90
10390;DHT22;5241;47.830;12.972;2022-12-11T03:12:07;0.00;99.90
10390;DHT22;5241;47.830;12.972;2022-12-11T03:14:35;0.00;99.90
10390;DHT22;5241;47.830;12.972;2022-12-11T03:17:04;0.00;99.90
10390;DHT22;5241;47.830;12.972;2022-12-11T03:19:43;0.00;99.90
10390;DHT22;5241;47.830;12.972;2022-12-11T03:25:11;0.00;99.90
10390;DHT22;5241;47.830;12.972;2022-12-11T03:27:54;0.00;99.90
10390;DHT22;5241;47.830;12.972;2022-12-11T03:30:23;0.00;99.90
10390;DHT22;5241;47.830;12.972;2022-12-11T03:32:59;0.00;99.90
10390;DHT22;5241;47.830;12.972;2022-12-11T03:35:33;0.00;99.90
10390;DHT22;5241;47.830;12.972;2022-12-11T03:38:05;-0.10;99.90
10390;DHT22;5241;47.830;12.972;2022-12-11T03:40:33;-0.10;99.90
10390;DHT22;5241;47.830;12.972;2022-12-11T03:43:00;-0.20;99.90
10390;DHT22;5241;47.830;12.972;2022-12-11T03:45:27;-0.20;99.90
10390;DHT22;5241;47.830;12.972;2022-12-11T03:47:55;-0.10;99.90
10390;DHT22;5241;47.830;12.972;2022-12-11T03:50:24;-0.20;99.90
10390;DHT22;5241;47.830;12.972;2022-12-11T03:52:51;-0.20;99.90
10390;DHT22;5241;47.830;12.972;2022-12-11T03:55:20;-0.20;99.90
10390;DHT22;5241;47.830;12.972;2022-12-11T03:57:46;-0.20;99.90
10390;DHT22;5241;47.830;12.972;2022-12-11T04:00:16;-0.20;99.90
10390;DHT22;5241;47.830;12.972;2022-12-11T04:02:43;-0.20;99.90
10390;DHT22;5241;47.830;12.972;2022-12-11T04:05:10;-0.20;99.90
10390;DHT22;5241;47.830;12.972;2022-12-11T04:07:36;-0.20;99.90
10390;DHT22;5241;47.830;12.972;2022-12-11T04:10:03;-0.10;99.90
10390;DHT22;5241;47.830;12.972;2022-12-11T04:12:29;-0.10;99.90
10390;DHT22;5241;47.830;12.972;2022-12-11T04:14:54;-0.20;99.90
10390;DHT22;5241;47.830;12.972;2022-12-11T04:17:30;-0.20;99.90
10390;DHT22;5241;47.830;12.972;2022-12-11T04:20:15;-0.20;99.90
10390;DHT22;5241;47.830;12.972;2022-12-11T04:23:03;-0.20;99.90
10390;DHT22;5241;47.830;12.972;2022-12-11T04:25:47;-0.10;99.90
10390;DHT22;5241;47.830;12.972;2022-12-11T04:28:13;-0.10;99.90
10390;DHT22;5241;47.830;12.972;2022-12-11T04:30:38;-0.20;99.90
10390;DHT22;5241;47.830;12.972;2022-12-11T04:33:04;-0.20;99.90
10390;DHT22;5241;47.830;12.972;2022-12-11T04:35:30;-0.20;99.90
10390;DHT22;5241;47.830;12.972;2022-12-11T04:37:55;-0.20;99.90
10390;DHT22;5241;47.830;12.972;2022-12-11T04:40:21;-0.20;99.90
10390;DHT22;5241;47.830;12.972;2022-12-11T04:42:47;-0.30;99.90
10390;DHT22;5241;47.830;12.972;2022-12-11T04:45:13;-0.30;99.90
10390;DHT22;5241;47.830;12.972;2022-12-11T04:47:39;-0.20;99.90
10390;DHT22;5241;47.830;12.972;2022-12-11T04:50:07;-0.30;99.90
10390;DHT22;5241;47.830;12.972;2022-12-11T04:52:32;-0.30;99.90
10390;DHT22;5241;47.830;12.972;2022-12-11T04:54:58;-0.30;99.90
10390;DHT22;5241;47.830;12.972;2022-12-11T04:57:24;-0.30;99.90
10390;DHT22;5241;47.830;12.972;2022-12-11T04:59:49;-0.30;99.90
10390;DHT22;5241;47.830;12.972;2022-12-11T05:02:15;-0.30;99.90
10390;DHT22;5241;47.830;12.972;2022-12-11T05:04:41;-0.30;99.90
10390;DHT22;5241;47.830;12.972;2022-12-11T05:07:08;-0.40;99.90
10390;DHT22;5241;47.830;12.972;2022-12-11T05:09:34;-0.40;99.90
10390;DHT22;5241;47.830;12.972;2022-12-11T05:12:00;-0.40;99.90
10390;DHT22;5241;47.830;12.972;2022-12-11T05:14:26;-0.40;99.90
10390;DHT22;5241;47.830;12.972;2022-12-11T05:16:54;-0.40;99.90
10390;DHT22;5241;47.830;12.972;2022-12-11T05:19:20;-0.40;99.90
10390;DHT22;5241;47.830;12.972;2022-12-11T05:21:45;-0.30;99.90
10390;DHT22;5241;47.830;12.972;2022-12-11T05:24:11;-0.40;99.90
10390;DHT22;5241;47.830;12.972;2022-12-11T05:26:36;-0.40;99.90
10390;DHT22;5241;47.830;12.972;2022-12-11T05:29:02;-0.40;99.90
10390;DHT22;5241;47.830;12.972;2022-12-11T05:31:27;-0.50;99.90
10390;DHT22;5241;47.830;12.972;2022-12-11T05:33:53;-0.50;99.90
10390;DHT22;5241;47.830;12.972;2022-12-11T05:36:28;-0.50;99.90
10390;DHT22;5241;47.830;12.972;2022-12-11T05:38:54;-0.50;99.90
10390;DHT22;5241;47.830;12.972;2022-12-11T05:41:22;-0.50;99.90
10390;DHT22;5241;47.830;12.972;2022-12-11T05:43:48;-0.50;99.90
10390;DHT22;5241;47.830;12.972;2022-12-11T05:46:16;-0.60;99.90
10390;DHT22;5241;47.830;12.972;2022-12-11T05:48:44;-0.50;99.90
10390;DHT22;5241;47.830;12.972;2022-12-11T05:51:11;-0.50;99.90
10390;DHT22;5241;47.830;12.972;2022-12-11T05:53:38;-0.50;99.90
10390;DHT22;5241;47.830;12.972;2022-12-11T05:56:07;-0.60;99.90
10390;DHT22;5241;47.830;12.972;2022-12-11T05:58:34;-0.60;99.90
10390;DHT22;5241;47.830;12.972;2022-12-11T06:01:00;-0.60;99.90
10390;DHT22;5241;47.830;12.972;2022-12-11T06:03:26;-0.60;99.90
10390;DHT22;5241;47.830;12.972;2022-12-11T06:05:52;-0.50;99.90
10390;DHT22;5241;47.830;12.972;2022-12-11T06:08:17;-0.50;99.90
10390;DHT22;5241;47.830;12.972;2022-12-11T06:10:48;-0.50;99.90
10390;DHT22;5241;47.830;12.972;2022-12-11T06:13:14;-0.50;99.90
10390;DHT22;5241;47.830;12.972;2022-12-11T06:15:40;-0.50;99.90
10390;DHT22;5241;47.830;12.972;2022-12-11T06:18:05;-0.50;99.90
10390;DHT22;5241;47.830;12.972;2022-12-11T06:20:32;-0.50;99.90
10390;DHT22;5241;47.830;12.972;2022-12-11T06:22:58;-0.50;99.90
10390;DHT22;5241;47.830;12.972;2022-12-11T06:25:24;-0.50;99.90
10390;DHT22;5241;47.830;12.972;2022-12-11T06:27:50;-0.50;99.90
10390;DHT22;5241;47.830;12.972;2022-12-11T06:30:15;-0.50;99.90
10390;DHT22;5241;47.830;12.972;2022-12-11T06:32:42;-0.50;99.90
10390;DHT22;5241;47.830;12.972;2022-12-11T06:35:08;-0.50;99.90
10390;DHT22;5241;47.830;12.972;2022-12-11T06:37:34;-0.50;99.90
10390;DHT22;5241;47.830;12.972;2022-12-11T06:40:01;-0.50;99.90
10390;DHT22;5241;47.830;12.972;2022-12-11T06:42:28;-0.50;99.90
10390;DHT22;5241;47.830;12.972;2022-12-11T06:44:54;-0.50;99.90
10390;DHT22;5241;47.830;12.972;2022-12-11T06:47:21;-0.50;99.90
10390;DHT22;5241;47.830;12.972;2022-12-11T06:49:47;-0.50;99.90
10390;DHT22;5241;47.830;12.972;2022-12-11T06:52:13;-0.50;99.90
10390;DHT22;5241;47.830;12.972;2022-12-11T06:54:38;-0.50;99.90
10390;DHT22;5241;47.830;12.972;2022-12-11T06:57:04;-0.50;99.90
10390;DHT22;5241;47.830;12.972;2022-12-11T06:59:29;-0.50;99.90
10390;DHT22;5241;47.830;12.972;2022-12-11T07:01:55;-0.60;99.90
10390;DHT22;5241;47.830;12.972;2022-12-11T07:04:21;-0.60;99.90
10390;DHT22;5241;47.830;12.972;2022-12-11T07:06:49;-0.70;99.90
10390;DHT22;5241;47.830;12.972;2022-12-11T07:09:15;-0.70;99.90
10390;DHT22;5241;47.830;12.972;2022-12-11T07:11:40;-0.80;99.90
10390;DHT22;5241;47.830;12.972;2022-12-11T07:14:06;-0.80;99.90
10390;DHT22;5241;47.830;12.972;2022-12-11T07:16:31;-0.80;99.90
10390;DHT22;5241;47.830;12.972;2022-12-11T07:18:57;-0.80;99.90
10390;DHT22;5241;47.830;12.972;2022-12-11T07:21:23;-0.80;99.90
10390;DHT22;5241;47.830;12.972;2022-12-11T07:23:49;-0.80;99.90
10390;DHT22;5241;47.830;12.972;2022-12-11T07:26:17;-0.90;99.90
10390;DHT22;5241;47.830;12.972;2022-12-11T07:28:43;-0.80;99.90
10390;DHT22;5241;47.830;12.972;2022-12-11T07:31:14;-0.90;99.90
10390;DHT22;5241;47.830;12.972;2022-12-11T07:33:41;-0.90;99.90
10390;DHT22;5241;47.830;12.972;2022-12-11T07:36:08;-0.80;99.90
10390;DHT22;5241;47.830;12.972;2022-12-11T07:38:34;-0.80;99.90
10390;DHT22;5241;47.830;12.972;2022-12-11T07:41:08;-0.80;99.90
10390;DHT22;5241;47.830;12.972;2022-12-11T07:43:35;-0.90;99.90
10390;DHT22;5241;47.830;12.972;2022-12-11T07:46:06;-0.90;99.90
10390;DHT22;5241;47.830;12.972;2022-12-11T07:48:34;-0.80;99.90
10390;DHT22;5241;47.830;12.972;2022-12-11T07:51:11;-0.80;99.90
10390;DHT22;5241;47.830;12.972;2022-12-11T07:53:37;-0.80;99.90
10390;DHT22;5241;47.830;12.972;2022-12-11T07:56:03;-0.70;99.90
10390;DHT22;5241;47.830;12.972;2022-12-11T07:58:29;-0.70;99.90
10390;DHT22;5241;47.830;12.972;2022-12-11T08:00:55;-0.70;99.90
10390;DHT22;5241;47.830;12.972;2022-12-11T08:03:20;-0.70;99.90
10390;DHT22;5241;47.830;12.972;2022-12-11T08:05:50;-0.70;99.90
10390;DHT22;5241;47.830;12.972;2022-12-11T08:08:16;-0.70;99.90
10390;DHT22;5241;47.830;12.972;2022-12-11T08:10:42;-0.80;99.90
10390;DHT22;5241;47.830;12.972;2022-12-11T08:13:08;-0.70;99.90
10390;DHT22;5241;47.830;12.972;2022-12-11T08:15:34;-0.70;99.90
10390;DHT22;5241;47.830;12.972;2022-12-11T08:18:00;-0.80;99.90
10390;DHT22;5241;47.830;12.972;2022-12-11T08:20:26;-0.80;99.90
10390;DHT22;5241;47.830;12.972;2022-12-11T08:22:52;-0.80;99.90
10390;DHT22;5241;47.830;12.972;2022-12-11T08:25:17;-0.70;99.90
10390;DHT22;5241;47.830;12.972;2022-12-11T08:27:43;-0.70;99.90
10390;DHT22;5241;47.830;12.972;2022-12-11T08:30:09;-0.70;99.90
10390;DHT22;5241;47.830;12.972;2022-12-11T08:32:35;-0.70;99.90
10390;DHT22;5241;47.830;12.972;2022-12-11T08:35:00;-0.70;99.90
10390;DHT22;5241;47.830;12.972;2022-12-11T08:37:26;-0.60;99.90
10390;DHT22;5241;47.830;12.972;2022-12-11T08:39:52;-0.60;99.90
10390;DHT22;5241;47.830;12.972;2022-12-11T08:42:17;-0.50;99.90
10390;DHT22;5241;47.830;12.972;2022-12-11T08:44:43;-0.60;99.90
10390;DHT22;5241;47.830;12.972;2022-12-11T08:47:09;-0.60;99.90
10390;DHT22;5241;47.830;12.972;2022-12-11T08:49:35;-0.50;99.90
10390;DHT22;5241;47.830;12.972;2022-12-11T08:52:03;-0.50;99.90
10390;DHT22;5241;47.830;12.972;2022-12-11T08:54:29;-0.50;99.90
10390;DHT22;5241;47.830;12.972;2022-12-11T08:56:54;-0.50;99.90
10390;DHT22;5241;47.830;12.972;2022-12-11T08:59:20;-0.50;99.90
10390;DHT22;5241;47.830;12.972;2022-12-11T09:01:45;-0.50;99.90
10390;DHT22;5241;47.830;12.972;2022-12-11T09:04:11;-0.40;99.90
10390;DHT22;5241;47.830;12.972;2022-12-11T09:06:36;-0.40;99.90
10390;DHT22;5241;47.830;12.972;2022-12-11T09:09:03;-0.40;99.90
10390;DHT22;5241;47.830;12.972;2022-12-11T09:11:31;-0.30;99.90
10390;DHT22;5241;47.830;12.972;2022-12-11T09:13:58;-0.30;99.90
10390;DHT22;5241;47.830;12.972;2022-12-11T09:16:24;-0.20;99.90
10390;DHT22;5241;47.830;12.972;2022-12-11T09:18:51;-0.20;99.90
10390;DHT22;5241;47.830;12.972;2022-12-11T09:21:20;-0.20;99.90
10390;DHT22;5241;47.830;12.972;2022-12-11T09:23:46;-0.20;99.90
10390;DHT22;5241;47.830;12.972;2022-12-11T09:26:14;-0.20;99.90
10390;DHT22;5241;47.830;12.972;2022-12-11T09:28:40;-0.20;99.90
10390;DHT22;5241;47.830;12.972;2022-12-11T09:31:11;-0.20;99.90
10390;DHT22;5241;47.830;12.972;2022-12-11T09:33:37;-0.30;99.90
10390;DHT22;5241;47.830;12.972;2022-12-11T09:36:04;-0.30;99.90
10390;DHT22;5241;47.830;12.972;2022-12-11T09:38:30;-0.30;99.90
10390;DHT22;5241;47.830;12.972;2022-12-11T09:40:56;-0.30;99.90
10390;DHT22;5241;47.830;12.972;2022-12-11T09:46:09;-0.20;99.90
10390;DHT22;5241;47.830;12.972;2022-12-11T09:48:37;-0.30;99.90
10390;DHT22;5241;47.830;12.972;2022-12-11T09:53:55;-0.20;99.90
10390;DHT22;5241;47.830;12.972;2022-12-11T09:56:32;-0.20;99.90
10390;DHT22;5241;47.830;12.972;2022-12-11T10:17:33;-0.20;99.90
10390;DHT22;5241;47.830;12.972;2022-12-11T10:22:41;-0.10;99.90
10390;DHT22;5241;47.830;12.972;2022-12-11T10:25:17;-0.20;99.90
10390;DHT22;5241;47.830;12.972;2022-12-11T10:27:43;-0.10;99.90
10390;DHT22;5241;47.830;12.972;2022-12-11T10:33:05;0.00;99.90
10390;DHT22;5241;47.830;12.972;2022-12-11T10:35:42;0.00;99.90
10390;DHT22;5241;47.830;12.972;2022-12-11T10:40:37;0.00;99.90
10390;DHT22;5241;47.830;12.972;2022-12-11T10:43:04;0.10;99.90
10390;DHT22;5241;47.830;12.972;2022-12-11T10:45:30;0.10;99.90
10390;DHT22;5241;47.830;12.972;2022-12-11T10:48:05;0.20;99.90
10390;DHT22;5241;47.830;12.972;2022-12-11T10:50:35;0.30;99.90
10390;DHT22;5241;47.830;12.972;2022-12-11T10:53:01;0.30;99.90
10390;DHT22;5241;47.830;12.972;2022-12-11T10:55:39;0.40;99.90
10390;DHT22;5241;47.830;12.972;2022-12-11T10:58:16;0.40;99.90
10390;DHT22;5241;47.830;12.972;2022-12-11T11:00:43;0.40;99.90
10390;DHT22;5241;47.830;12.972;2022-12-11T11:03:24;0.50;99.90
10390;DHT22;5241;47.830;12.972;2022-12-11T11:06:02;0.40;99.90
10390;DHT22;5241;47.830;12.972;2022-12-11T11:08:37;0.40;99.90
10390;DHT22;5241;47.830;12.972;2022-12-11T11:11:04;0.50;99.90
10390;DHT22;5241;47.830;12.972;2022-12-11T11:13:31;0.50;99.90
10390;DHT22;5241;47.830;12.972;2022-12-11T11:16:05;0.50;99.90
10390;DHT22;5241;47.830;12.972;2022-12-11T11:18:32;0.50;99.90
10390;DHT22;5241;47.830;12.972;2022-12-11T11:20:59;0.60;99.90
10390;DHT22;5241;47.830;12.972;2022-12-11T11:23:25;0.80;99.90
10390;DHT22;5241;47.830;12.972;2022-12-11T11:25:53;0.90;99.90
10390;DHT22;5241;47.830;12.972;2022-12-11T11:28:27;0.80;99.90
10390;DHT22;5241;47.830;12.972;2022-12-11T11:31:20;0.90;99.90
10390;DHT22;5241;47.830;12.972;2022-12-11T11:33:59;0.70;99.90
10390;DHT22;5241;47.830;12.972;2022-12-11T11:36:29;0.60;99.90
10390;DHT22;5241;47.830;12.972;2022-12-11T11:39:30;0.40;99.90
10390;DHT22;5241;47.830;12.972;2022-12-11T11:42:18;0.40;99.90
10390;DHT22;5241;47.830;12.972;2022-12-11T11:45:11;0.20;99.90
10390;DHT22;5241;47.830;12.972;2022-12-11T11:47:57;0.20;99.90
10390;DHT22;5241;47.830;12.972;2022-12-11T11:50:29;0.10;99.90
10390;DHT22;5241;47.830;12.972;2022-12-11T11:53:02;0.10;99.90
10390;DHT22;5241;47.830;12.972;2022-12-11T11:58:06;0.10;99.90
10390;DHT22;5241;47.830;12.972;2022-12-11T12:00:33;-0.10;99.90
10390;DHT22;5241;47.830;12.972;2022-12-11T12:03:09;0.00;99.90
10390;DHT22;5241;47.830;12.972;2022-12-11T12:05:47;0.00;99.90
10390;DHT22;5241;47.830;12.972;2022-12-11T12:11:22;0.00;99.90
10390;DHT22;5241;47.830;12.972;2022-12-11T12:21:37;-0.30;99.90
10390;DHT22;5241;47.830;12.972;2022-12-11T12:27:04;-0.20;99.90
10390;DHT22;5241;47.830;12.972;2022-12-11T12:30:03;-0.10;99.90
10390;DHT22;5241;47.830;12.972;2022-12-11T12:46:25;-0.10;99.90
10390;DHT22;5241;47.830;12.972;2022-12-11T12:48:54;-0.10;99.90
10390;DHT22;5241;47.830;12.972;2022-12-11T12:51:21;-0.20;99.90
10390;DHT22;5241;47.830;12.972;2022-12-11T12:53:53;-0.20;99.90
10390;DHT22;5241;47.830;12.972;2022-12-11T12:56:20;-0.20;99.90
10390;DHT22;5241;47.830;12.972;2022-12-11T12:58:46;-0.20;99.90
10390;DHT22;5241;47.830;12.972;2022-12-11T13:01:19;-0.20;99.90
10390;DHT22;5241;47.830;12.972;2022-12-11T13:06:15;-0.10;99.90
10390;DHT22;5241;47.830;12.972;2022-12-11T13:08:52;-0.20;99.90
10390;DHT22;5241;47.830;12.972;2022-12-11T13:11:19;-0.10;99.90
10390;DHT22;5241;47.830;12.972;2022-12-11T13:13:46;-0.10;99.90
10390;DHT22;5241;47.830;12.972;2022-12-11T13:18:42;-0.20;99.90
10390;DHT22;5241;47.830;12.972;2022-12-11T13:21:33;-0.10;99.90
10390;DHT22;5241;47.830;12.972;2022-12-11T13:26:43;0.00;99.90
10390;DHT22;5241;47.830;12.972;2022-12-11T13:29:38;0.10;99.90
10390;DHT22;5241;47.830;12.972;2022-12-11T13:32:21;0.20;99.90
10390;DHT22;5241;47.830;12.972;2022-12-11T13:34:54;0.10;99.90
10390;DHT22;5241;47.830;12.972;2022-12-11T13:37:35;0.00;99.90
10390;DHT22;5241;47.830;12.972;2022-12-11T13:40:08;-0.10;99.90
10390;DHT22;5241;47.830;12.972;2022-12-11T13:42:50;-0.10;99.90
10390;DHT22;5241;47.830;12.972;2022-12-11T13:45:20;-0.10;99.90
10390;DHT22;5241;47.830;12.972;2022-12-11T13:47:47;-0.20;99.90
10390;DHT22;5241;47.830;12.972;2022-12-11T13:50:42;-0.20;99.90
10390;DHT22;5241;47.830;12.972;2022-12-11T13:53:15;-0.20;99.90
10390;DHT22;5241;47.830;12.972;2022-12-11T13:55:41;-0.30;99.90
10390;DHT22;5241;47.830;12.972;2022-12-11T13:58:21;-0.20;99.90
10390;DHT22;5241;47.830;12.972;2022-12-11T14:01:19;-0.20;99.90
10390;DHT22;5241;47.830;12.972;2022-12-11T14:04:01;-0.30;99.90
10390;DHT22;5241;47.830;12.972;2022-12-11T14:06:27;-0.40;99.90
10390;DHT22;5241;47.830;12.972;2022-12-11T14:08:57;-0.50;99.90
10390;DHT22;5241;47.830;12.972;2022-12-11T14:11:28;-0.50;99.90
10390;DHT22;5241;47.830;12.972;2022-12-11T14:13:56;-0.60;99.90
10390;DHT22;5241;47.830;12.972;2022-12-11T14:16:24;-0.60;99.90
10390;DHT22;5241;47.830;12.972;2022-12-11T14:18:52;-0.60;99.90
10390;DHT22;5241;47.830;12.972;2022-12-11T14:21:23;-0.60;99.90
10390;DHT22;5241;47.830;12.972;2022-12-11T14:23:51;-0.60;99.90
10390;DHT22;5241;47.830;12.972;2022-12-11T14:26:26;-0.60;99.90
10390;DHT22;5241;47.830;12.972;2022-12-11T14:28:52;-0.70;99.90
10390;DHT22;5241;47.830;12.972;2022-12-11T14:31:27;-0.70;99.90
10390;DHT22;5241;47.830;12.972;2022-12-11T14:33:58;-0.70;99.90
10390;DHT22;5241;47.830;12.972;2022-12-11T14:36:25;-0.70;99.90
10390;DHT22;5241;47.830;12.972;2022-12-11T14:38:55;-0.70;99.90
10390;DHT22;5241;47.830;12.972;2022-12-11T14:41:49;-0.70;99.90
10390;DHT22;5241;47.830;12.972;2022-12-11T14:44:19;-0.70;99.90
10390;DHT22;5241;47.830;12.972;2022-12-11T14:46:49;-0.70;99.90
10390;DHT22;5241;47.830;12.972;2022-12-11T14:49:25;-0.80;99.90
10390;DHT22;5241;47.830;12.972;2022-12-11T14:51:55;-0.70;99.90
10390;DHT22;5241;47.830;12.972;2022-12-11T14:54:36;-0.80;99.90
10390;DHT22;5241;47.830;12.972;2022-12-11T14:57:03;-0.80;99.90
10390;DHT22;5241;47.830;12.972;2022-12-11T14:59:34;-0.80;99.90
10390;DHT22;5241;47.830;12.972;2022-12-11T15:02:19;-0.80;99.90
10390;DHT22;5241;47.830;12.972;2022-12-11T15:04:58;-1.00;99.90
10390;DHT22;5241;47.830;12.972;2022-12-11T15:07:25;-1.10;99.90
10390;DHT22;5241;47.830;12.972;2022-12-11T15:09:51;-1.10;99.90
10390;DHT22;5241;47.830;12.972;2022-12-11T15:12:18;-1.20;99.90
10390;DHT22;5241;47.830;12.972;2022-12-11T15:14:53;-1.30;99.90
10390;DHT22;5241;47.830;12.972;2022-12-11T15:17:20;-1.40;99.90
10390;DHT22;5241;47.830;12.972;2022-12-11T15:19:49;-1.50;99.90
10390;DHT22;5241;47.830;12.972;2022-12-11T15:22:16;-1.50;99.90
10390;DHT22;5241;47.830;12.972;2022-12-11T15:24:44;-1.50;99.90
10390;DHT22;5241;47.830;12.972;2022-12-11T15:27:35;-1.60;99.90
10390;DHT22;5241;47.830;12.972;2022-12-11T15:35:36;-1.70;99.90
10390;DHT22;5241;47.830;12.972;2022-12-11T15:38:02;-1.80;99.90
10390;DHT22;5241;47.830;12.972;2022-12-11T15:40:28;-1.80;99.90
10390;DHT22;5241;47.830;12.972;2022-12-11T15:42:54;-1.80;99.90
10390;DHT22;5241;47.830;12.972;2022-12-11T15:45:23;-1.90;99.90
10390;DHT22;5241;47.830;12.972;2022-12-11T15:47:50;-1.80;99.90
10390;DHT22;5241;47.830;12.972;2022-12-11T15:52:44;-1.80;99.90
10390;DHT22;5241;47.830;12.972;2022-12-11T15:55:10;-1.80;99.90
10390;DHT22;5241;47.830;12.972;2022-12-11T15:57:36;-1.90;99.90
10390;DHT22;5241;47.830;12.972;2022-12-11T16:00:04;-1.80;99.90
10390;DHT22;5241;47.830;12.972;2022-12-11T16:02:31;-1.80;99.90
10390;DHT22;5241;47.830;12.972;2022-12-11T16:04:56;-1.70;99.90
10390;DHT22;5241;47.830;12.972;2022-12-11T16:07:24;-1.70;99.90
10390;DHT22;5241;47.830;12.972;2022-12-11T16:09:51;-1.60;99.90
10390;DHT22;5241;47.830;12.972;2022-12-11T16:12:17;-1.70;99.90
10390;DHT22;5241;47.830;12.972;2022-12-11T16:14:44;-1.70;99.90
10390;DHT22;5241;47.830;12.972;2022-12-11T16:17:10;-1.80;99.90
10390;DHT22;5241;47.830;12.972;2022-12-11T16:19:37;-1.90;99.90
10390;DHT22;5241;47.830;12.972;2022-12-11T16:22:03;-1.90;99.90
10390;DHT22;5241;47.830;12.972;2022-12-11T16:24:29;-1.90;99.90
10390;DHT22;5241;47.830;12.972;2022-12-11T16:26:55;-1.90;99.90
10390;DHT22;5241;47.830;12.972;2022-12-11T16:29:20;-1.90;99.90
10390;DHT22;5241;47.830;12.972;2022-12-11T16:31:46;-1.90;99.90
10390;DHT22;5241;47.830;12.972;2022-12-11T16:34:12;-1.90;99.90
10390;DHT22;5241;47.830;12.972;2022-12-11T16:36:38;-1.90;99.90
10390;DHT22;5241;47.830;12.972;2022-12-11T16:39:03;-1.90;99.90
10390;DHT22;5241;47.830;12.972;2022-12-11T16:41:29;-1.80;99.90
10390;DHT22;5241;47.830;12.972;2022-12-11T16:43:54;-1.90;99.90
10390;DHT22;5241;47.830;12.972;2022-12-11T16:46:22;-1.80;99.90
10390;DHT22;5241;47.830;12.972;2022-12-11T16:48:48;-1.70;99.90
10390;DHT22;5241;47.830;12.972;2022-12-11T16:51:15;-1.70;99.90
10390;DHT22;5241;47.830;12.972;2022-12-11T16:53:41;-1.70;99.90
10390;DHT22;5241;47.830;12.972;2022-12-11T16:56:07;-1.60;99.90
10390;DHT22;5241;47.830;12.972;2022-12-11T16:58:33;-1.70;99.90
10390;DHT22;5241;47.830;12.972;2022-12-11T17:00:59;-1.70;99.90
10390;DHT22;5241;47.830;12.972;2022-12-11T17:03:30;-1.70;99.90
10390;DHT22;5241;47.830;12.972;2022-12-11T17:05:57;-1.70;99.90
10390;DHT22;5241;47.830;12.972;2022-12-11T17:08:23;-1.80;99.90
10390;DHT22;5241;47.830;12.972;2022-12-11T17:10:50;-1.80;99.90
10390;DHT22;5241;47.830;12.972;2022-12-11T17:13:16;-1.80;99.90
10390;DHT22;5241;47.830;12.972;2022-12-11T17:15:42;-1.80;99.90